createdAt,value
2022-10-04T00:00:46.924Z,51.216106
2022-10-04T00:01:46.937Z,51.216114
2022-10-04T00:02:46.967Z,51.216110
2022-10-04T00:03:46.921Z,51.216103
2022-10-04T00:04:46.876Z,51.216156
2022-10-04T00:05:46.902Z,51.216137
2022-10-04T00:06:46.890Z,51.216064
2022-10-04T00:07:46.898Z,51.216137
2022-10-04T00:08:46.845Z,51.216049
2022-10-04T00:09:46.886Z,51.216061
2022-10-04T00:10:46.852Z,51.216011
2022-10-04T00:11:46.866Z,51.216045
2022-10-04T00:12:46.841Z,51.216022
2022-10-04T00:13:46.822Z,51.216042
2022-10-04T00:14:46.828Z,51.216118
2022-10-04T00:15:46.840Z,51.215981
2022-10-04T00:16:46.822Z,51.216030
2022-10-04T00:17:46.938Z,51.215904
2022-10-04T00:18:46.800Z,51.215954
2022-10-04T00:19:46.791Z,51.215992
2022-10-04T00:20:46.792Z,51.216064
2022-10-04T00:21:46.778Z,51.216011
2022-10-04T00:22:46.774Z,51.216042
2022-10-04T00:23:46.761Z,51.216122
2022-10-04T00:24:46.758Z,51.216118
2022-10-04T00:25:46.753Z,51.216087
2022-10-04T00:26:46.739Z,51.216171
2022-10-04T00:27:46.742Z,51.216110
2022-10-04T00:28:46.730Z,51.216202
2022-10-04T00:29:46.711Z,51.216106
2022-10-04T00:30:46.726Z,51.216084
2022-10-04T00:31:46.739Z,51.216095
2022-10-04T00:32:46.698Z,51.216049
2022-10-04T00:33:46.697Z,51.216057
2022-10-04T00:34:46.685Z,51.216030
2022-10-04T00:35:46.673Z,51.216015
2022-10-04T00:36:46.682Z,51.215931
2022-10-04T00:37:46.673Z,51.215954
2022-10-04T00:38:46.664Z,51.215965
2022-10-04T00:39:46.658Z,51.215965
2022-10-04T00:40:46.654Z,51.216076
2022-10-04T00:41:46.662Z,51.215919
2022-10-04T00:42:46.754Z,51.215927
2022-10-04T00:43:46.648Z,51.215935
2022-10-04T00:44:46.627Z,51.216064
2022-10-04T00:45:46.675Z,51.216259
2022-10-04T00:46:46.613Z,51.216141
2022-10-04T00:47:46.617Z,51.216282
2022-10-04T00:48:46.597Z,51.216248
2022-10-04T00:49:46.581Z,51.215996
2022-10-04T00:50:46.582Z,51.216251
2022-10-04T00:51:46.573Z,51.216061
2022-10-04T00:52:46.558Z,51.216019
2022-10-04T00:53:46.580Z,51.216038
2022-10-04T00:54:46.558Z,51.215958
2022-10-04T00:55:46.558Z,51.216049
2022-10-04T00:56:46.551Z,51.216190
2022-10-04T00:57:46.537Z,51.216396
2022-10-04T00:58:46.560Z,51.216110
2022-10-04T00:59:46.524Z,51.216202
2022-10-04T01:00:46.569Z,51.216290
2022-10-04T01:01:46.570Z,51.216068
2022-10-04T01:02:46.510Z,51.216179
2022-10-04T01:03:46.513Z,51.216198
2022-10-04T01:04:46.509Z,51.216068
2022-10-04T01:05:46.493Z,51.216133
2022-10-04T01:06:46.493Z,51.216125
2022-10-04T01:07:46.479Z,51.215984
2022-10-04T01:08:46.469Z,51.215794
2022-10-04T01:09:46.497Z,51.215965
2022-10-04T01:10:46.469Z,51.216290
2022-10-04T01:11:46.485Z,51.216179
2022-10-04T01:12:46.442Z,51.216236
2022-10-04T01:13:46.441Z,51.216183
2022-10-04T01:14:46.445Z,51.216160
2022-10-04T01:15:46.507Z,51.216274
2022-10-04T01:16:46.437Z,51.216087
2022-10-04T01:17:46.417Z,51.216270
2022-10-04T01:18:46.409Z,51.215927
2022-10-04T01:19:46.408Z,51.215630
2022-10-04T01:20:46.412Z,51.215679
2022-10-04T01:21:46.380Z,51.215637
2022-10-04T01:22:46.394Z,51.215923
2022-10-04T01:23:46.380Z,51.215809
2022-10-04T01:24:46.368Z,51.215500
2022-10-04T01:25:46.393Z,51.215714
2022-10-04T01:26:46.375Z,51.215992
2022-10-04T01:27:46.349Z,51.215778
2022-10-04T01:28:46.341Z,51.215694
2022-10-04T01:29:46.341Z,51.215706
2022-10-04T01:30:46.327Z,51.215927
2022-10-04T01:31:46.585Z,51.216087
2022-10-04T01:32:46.320Z,51.216179
2022-10-04T01:33:46.306Z,51.216156
2022-10-04T01:34:46.305Z,51.216133
2022-10-04T01:35:46.304Z,51.215946
2022-10-04T01:36:46.300Z,51.216045
2022-10-04T01:37:46.287Z,51.216068
2022-10-04T01:38:46.286Z,51.216003
2022-10-04T01:39:46.261Z,51.215973
2022-10-04T01:40:46.248Z,51.215981
2022-10-04T01:41:46.254Z,51.215988
2022-10-04T01:42:46.260Z,51.216080
2022-10-04T01:43:46.237Z,51.216152
2022-10-04T01:44:46.233Z,51.216156
2022-10-04T01:45:46.226Z,51.216324
2022-10-04T01:46:46.263Z,51.216072
2022-10-04T01:47:46.237Z,51.216110
2022-10-04T01:48:46.216Z,51.216141
2022-10-04T01:49:46.200Z,51.216076
2022-10-04T01:50:46.193Z,51.216084
2022-10-04T01:51:46.208Z,51.216038
2022-10-04T01:52:46.177Z,51.215824
2022-10-04T01:53:46.170Z,51.216084
2022-10-04T01:54:46.164Z,51.215961
2022-10-04T01:55:46.157Z,51.215904
2022-10-04T01:56:46.162Z,51.216118
2022-10-04T01:57:46.145Z,51.215839
2022-10-04T01:58:46.133Z,51.215866
2022-10-04T01:59:46.120Z,51.216049
2022-10-04T02:00:46.171Z,51.216072
2022-10-04T02:01:46.434Z,51.216137
2022-10-04T02:02:46.109Z,51.216145
2022-10-04T02:03:46.143Z,51.216217
2022-10-04T02:04:46.126Z,51.216393
2022-10-04T02:05:46.080Z,51.216396
2022-10-04T02:06:46.093Z,51.216335
2022-10-04T02:07:46.069Z,51.216221
2022-10-04T02:08:46.061Z,51.216309
2022-10-04T02:09:46.062Z,51.216301
2022-10-04T02:10:46.073Z,51.216217
2022-10-04T02:11:46.126Z,51.216206
2022-10-04T02:12:46.035Z,51.216183
2022-10-04T02:13:46.025Z,51.216221
2022-10-04T02:14:46.025Z,51.216053
2022-10-04T02:15:46.063Z,51.216099
2022-10-04T02:16:46.012Z,51.216274
2022-10-04T02:17:46.018Z,51.216213
2022-10-04T02:18:46.008Z,51.216236
2022-10-04T02:19:46.000Z,51.216225
2022-10-04T02:20:45.981Z,51.216309
2022-10-04T02:21:45.983Z,51.216305
2022-10-04T02:22:46.144Z,51.216049
2022-10-04T02:23:45.965Z,51.216129
2022-10-04T02:24:45.957Z,51.215984
2022-10-04T02:25:45.956Z,51.215828
2022-10-04T02:26:45.941Z,51.215771
2022-10-04T02:27:45.940Z,51.216297
2022-10-04T02:28:46.064Z,51.216290
2022-10-04T02:29:45.921Z,51.216160
2022-10-04T02:30:45.928Z,51.216255
2022-10-04T02:31:46.207Z,51.216175
2022-10-04T02:32:45.913Z,51.216175
2022-10-04T02:33:45.923Z,51.216469
2022-10-04T02:34:45.904Z,51.216118
2022-10-04T02:35:45.876Z,51.215977
2022-10-04T02:36:45.876Z,51.215790
2022-10-04T02:37:45.892Z,51.215881
2022-10-04T02:38:45.861Z,51.216026
2022-10-04T02:39:45.853Z,51.215923
2022-10-04T02:40:45.858Z,51.215931
2022-10-04T02:41:45.837Z,51.216061
2022-10-04T02:42:45.850Z,51.216137
2022-10-04T02:43:45.845Z,51.216141
2022-10-04T02:44:45.838Z,51.216156
2022-10-04T02:45:45.820Z,51.215942
2022-10-04T02:46:45.875Z,51.215881
2022-10-04T02:47:45.804Z,51.215969
2022-10-04T02:48:45.820Z,51.216049
2022-10-04T02:49:45.795Z,51.216320
2022-10-04T02:50:46.789Z,51.215992
2022-10-04T02:51:45.789Z,51.215858
2022-10-04T02:52:45.767Z,51.216091
2022-10-04T02:53:45.761Z,51.216232
2022-10-04T02:54:45.760Z,51.216072
2022-10-04T02:55:45.748Z,51.216042
2022-10-04T02:56:45.745Z,51.216244
2022-10-04T02:57:45.733Z,51.216042
2022-10-04T02:58:45.732Z,51.216087
2022-10-04T02:59:45.749Z,51.216152
2022-10-04T03:00:45.766Z,51.216042
2022-10-04T03:01:46.026Z,51.216068
2022-10-04T03:02:45.769Z,51.215981
2022-10-04T03:03:45.693Z,51.216114
2022-10-04T03:04:45.702Z,51.216076
2022-10-04T03:05:45.704Z,51.216129
2022-10-04T03:06:45.685Z,51.216049
2022-10-04T03:07:45.668Z,51.216068
2022-10-04T03:08:45.666Z,51.216003
2022-10-04T03:09:45.666Z,51.216114
2022-10-04T03:10:45.657Z,51.216022
2022-10-04T03:11:45.644Z,51.215893
2022-10-04T03:12:45.645Z,51.216068
2022-10-04T03:13:45.629Z,51.216076
2022-10-04T03:14:45.648Z,51.216042
2022-10-04T03:15:45.660Z,51.216091
2022-10-04T03:16:45.604Z,51.216045
2022-10-04T03:17:45.605Z,51.216087
2022-10-04T03:18:45.600Z,51.216068
2022-10-04T03:19:45.589Z,51.216122
2022-10-04T03:20:45.596Z,51.216129
2022-10-04T03:21:45.660Z,51.216141
2022-10-04T03:22:47.018Z,51.216156
2022-10-04T03:23:46.564Z,51.216148
2022-10-04T03:24:45.560Z,51.216141
2022-10-04T03:25:45.548Z,51.216133
2022-10-04T03:26:45.543Z,51.216099
2022-10-04T03:27:45.564Z,51.216125
2022-10-04T03:28:45.534Z,51.216167
2022-10-04T03:29:45.520Z,51.216145
2022-10-04T03:30:45.516Z,51.216118
2022-10-04T03:31:45.873Z,51.216087
2022-10-04T03:32:45.500Z,51.216129
2022-10-04T03:33:45.504Z,51.216129
2022-10-04T03:34:45.481Z,51.216129
2022-10-04T03:35:46.476Z,51.216125
2022-10-04T03:36:45.476Z,51.216160
2022-10-04T03:37:45.468Z,51.216125
2022-10-04T03:38:45.476Z,51.216122
2022-10-04T03:39:45.455Z,51.216148
2022-10-04T03:40:45.446Z,51.216106
2022-10-04T03:41:45.448Z,51.216156
2022-10-04T03:42:45.428Z,51.216080
2022-10-04T03:43:45.428Z,51.216164
2022-10-04T03:44:45.443Z,51.216129
2022-10-04T03:45:45.451Z,51.216122
2022-10-04T03:46:45.411Z,51.216129
2022-10-04T03:47:45.412Z,51.216133
2022-10-04T03:48:45.401Z,51.216137
2022-10-04T03:49:50.505Z,51.216099
2022-10-04T03:50:47.397Z,51.216084
2022-10-04T03:51:45.380Z,51.216068
2022-10-04T03:52:45.364Z,51.216084
2022-10-04T03:53:45.368Z,51.216057
2022-10-04T03:54:45.367Z,51.216095
2022-10-04T03:55:45.351Z,51.216122
2022-10-04T03:56:45.359Z,51.216049
2022-10-04T03:57:45.340Z,51.216068
2022-10-04T03:58:45.328Z,51.216064
2022-10-04T03:59:45.328Z,51.216061
2022-10-04T04:00:45.386Z,51.216015
2022-10-04T04:01:45.609Z,51.215973
2022-10-04T04:02:46.346Z,51.216080
2022-10-04T04:03:46.289Z,51.216030
2022-10-04T04:04:45.293Z,51.216011
2022-10-04T04:05:45.288Z,51.216011
2022-10-04T04:06:45.276Z,51.216125
2022-10-04T04:07:45.288Z,51.215942
2022-10-04T04:08:45.284Z,51.216007
2022-10-04T04:09:45.261Z,51.216084
2022-10-04T04:10:45.245Z,51.215977
2022-10-04T04:11:45.237Z,51.215954
2022-10-04T04:12:45.230Z,51.216007
2022-10-04T04:13:45.249Z,51.216053
2022-10-04T04:14:45.225Z,51.216072
2022-10-04T04:15:45.222Z,51.216099
2022-10-04T04:16:45.235Z,51.216087
2022-10-04T04:17:45.211Z,51.216087
2022-10-04T04:18:45.222Z,51.216118
2022-10-04T04:19:45.194Z,51.216099
2022-10-04T04:20:45.199Z,51.215981
2022-10-04T04:21:45.185Z,51.216084
2022-10-04T04:22:45.162Z,51.216007
2022-10-04T04:23:45.156Z,51.216003
2022-10-04T04:24:45.157Z,51.215992
2022-10-04T04:25:45.268Z,51.216003
2022-10-04T04:26:45.151Z,51.216057
2022-10-04T04:27:45.130Z,51.216091
2022-10-04T04:28:45.125Z,51.216057
2022-10-04T04:29:45.128Z,51.215889
2022-10-04T04:30:45.141Z,51.216019
2022-10-04T04:31:45.442Z,51.216164
2022-10-04T04:32:45.108Z,51.216114
2022-10-04T04:33:45.105Z,51.216148
2022-10-04T04:34:45.089Z,51.216148
2022-10-04T04:35:45.105Z,51.216145
2022-10-04T04:36:45.085Z,51.216118
2022-10-04T04:37:45.069Z,51.216106
2022-10-04T04:38:45.077Z,51.216137
2022-10-04T04:39:45.054Z,51.216053
2022-10-04T04:40:45.051Z,51.216007
2022-10-04T04:41:50.220Z,51.216030
2022-10-04T04:42:47.042Z,51.216007
2022-10-04T04:43:45.052Z,51.215824
2022-10-04T04:44:45.017Z,51.215904
2022-10-04T04:45:45.079Z,51.216057
2022-10-04T04:46:45.079Z,51.216080
2022-10-04T04:47:44.994Z,51.216118
2022-10-04T04:48:45.006Z,51.216038
2022-10-04T04:49:44.990Z,51.216110
2022-10-04T04:50:45.020Z,51.216103
2022-10-04T04:51:44.990Z,51.216095
2022-10-04T04:52:44.994Z,51.216110
2022-10-04T04:53:44.969Z,51.216118
2022-10-04T04:54:44.958Z,51.216084
2022-10-04T04:56:02.748Z,51.215988
2022-10-04T04:56:46.946Z,51.216076
2022-10-04T04:57:44.934Z,51.216019
2022-10-04T04:58:44.962Z,51.215862
2022-10-04T04:59:44.917Z,51.215866
2022-10-04T05:00:44.952Z,51.216026
2022-10-04T05:01:45.418Z,51.216087
2022-10-04T05:02:44.905Z,51.216087
2022-10-04T05:03:44.897Z,51.216064
2022-10-04T05:04:44.894Z,51.216000
2022-10-04T05:05:44.877Z,51.216049
2022-10-04T05:06:44.898Z,51.216034
2022-10-04T05:07:44.865Z,51.215969
2022-10-04T05:08:44.853Z,51.215939
2022-10-04T05:09:44.854Z,51.216015
2022-10-04T05:10:44.865Z,51.216064
2022-10-04T05:11:44.931Z,51.216137
2022-10-04T05:12:44.833Z,51.216084
2022-10-04T05:13:44.821Z,51.216076
2022-10-04T05:14:44.821Z,51.216045
2022-10-04T05:15:44.821Z,51.216103
2022-10-04T05:16:44.873Z,51.216068
2022-10-04T05:17:44.785Z,51.216137
2022-10-04T05:18:44.788Z,51.216148
2022-10-04T05:19:44.781Z,51.216145
2022-10-04T05:20:44.774Z,51.216152
2022-10-04T05:21:45.085Z,51.216103
2022-10-04T05:22:44.761Z,51.216000
2022-10-04T05:23:44.766Z,51.216034
2022-10-04T05:24:44.745Z,51.216091
2022-10-04T05:25:44.737Z,51.216099
2022-10-04T05:26:44.746Z,51.216129
2022-10-04T05:27:44.768Z,51.216171
2022-10-04T05:28:44.714Z,51.216129
2022-10-04T05:29:44.705Z,51.216171
2022-10-04T05:30:44.701Z,51.216038
2022-10-04T05:31:45.168Z,51.216045
2022-10-04T05:32:44.685Z,51.216030
2022-10-04T05:33:44.673Z,51.216084
2022-10-04T05:34:44.674Z,51.216084
2022-10-04T05:35:44.673Z,51.216061
2022-10-04T05:36:44.664Z,51.216095
2022-10-04T05:37:44.657Z,51.216145
2022-10-04T05:38:44.654Z,51.216187
2022-10-04T05:39:44.642Z,51.216171
2022-10-04T05:40:44.652Z,51.216068
2022-10-04T05:41:44.925Z,51.216118
2022-10-04T05:42:44.622Z,51.216034
2022-10-04T05:43:44.612Z,51.216049
2022-10-04T05:44:44.610Z,51.216087
2022-10-04T05:45:44.795Z,51.216026
2022-10-04T05:46:44.642Z,51.216053
2022-10-04T05:47:44.584Z,51.216034
2022-10-04T05:48:44.565Z,51.216034
2022-10-04T05:49:44.593Z,51.216061
2022-10-04T05:50:44.561Z,51.216106
2022-10-04T05:51:44.985Z,51.216057
2022-10-04T05:52:44.564Z,51.216095
2022-10-04T05:53:44.544Z,51.216118
2022-10-04T05:54:44.536Z,51.216076
2022-10-04T05:55:44.529Z,51.216049
2022-10-04T05:56:44.517Z,51.216087
2022-10-04T05:57:44.587Z,51.216160
2022-10-04T05:58:44.506Z,51.216103
2022-10-04T05:59:44.505Z,51.216118
2022-10-04T06:00:44.493Z,51.216152
2022-10-04T06:01:44.834Z,51.216129
2022-10-04T06:02:44.539Z,51.216110
2022-10-04T06:03:44.476Z,51.216125
2022-10-04T06:04:44.479Z,51.216072
2022-10-04T06:05:44.460Z,51.215950
2022-10-04T06:06:44.448Z,51.216003
2022-10-04T06:07:44.440Z,51.216064
2022-10-04T06:08:44.441Z,51.216076
2022-10-04T06:09:44.434Z,51.216091
2022-10-04T06:10:44.421Z,51.216034
2022-10-04T06:11:44.717Z,51.216026
2022-10-04T06:12:44.755Z,51.216122
2022-10-04T06:13:45.415Z,51.216129
2022-10-04T06:14:44.392Z,51.216145
2022-10-04T06:15:44.385Z,51.216122
2022-10-04T06:16:44.426Z,51.216064
2022-10-04T06:17:44.376Z,51.216087
2022-10-04T06:18:44.383Z,51.216118
2022-10-04T06:19:44.365Z,51.216156
2022-10-04T06:20:44.364Z,51.216095
2022-10-04T06:21:44.806Z,51.216080
2022-10-04T06:22:44.340Z,51.216053
2022-10-04T06:23:44.380Z,51.216038
2022-10-04T06:24:44.338Z,51.216030
2022-10-04T06:25:44.350Z,51.216099
2022-10-04T06:26:44.316Z,51.216053
2022-10-04T06:27:44.304Z,51.216064
2022-10-04T06:28:44.308Z,51.216129
2022-10-04T06:29:44.287Z,51.216141
2022-10-04T06:30:44.342Z,51.216187
2022-10-04T06:31:44.584Z,51.216152
2022-10-04T06:32:44.273Z,51.216129
2022-10-04T06:33:44.296Z,51.216080
2022-10-04T06:34:44.277Z,51.216141
2022-10-04T06:35:44.254Z,51.216133
2022-10-04T06:36:44.241Z,51.216118
2022-10-04T06:37:44.258Z,51.216084
2022-10-04T06:38:44.236Z,51.216064
2022-10-04T06:39:44.239Z,51.216103
2022-10-04T06:40:44.220Z,51.216061
2022-10-04T06:41:44.470Z,51.216118
2022-10-04T06:42:44.209Z,51.215992
2022-10-04T06:43:44.205Z,51.216022
2022-10-04T06:44:46.389Z,51.216103
2022-10-04T06:45:45.205Z,51.216148
2022-10-04T06:46:44.177Z,51.216148
2022-10-04T06:47:44.166Z,51.216118
2022-10-04T06:48:44.165Z,51.216106
2022-10-04T06:49:44.165Z,51.216110
2022-10-04T06:50:44.157Z,51.216076
2022-10-04T06:51:44.598Z,51.216125
2022-10-04T06:52:44.141Z,51.216167
2022-10-04T06:53:44.120Z,51.216167
2022-10-04T06:54:44.126Z,51.216141
2022-10-04T06:55:44.120Z,51.216106
2022-10-04T06:56:44.104Z,51.216122
2022-10-04T06:57:44.097Z,51.216206
2022-10-04T06:58:44.092Z,51.216064
2022-10-04T06:59:44.086Z,51.215961
2022-10-04T07:00:44.090Z,51.216045
2022-10-04T07:01:44.449Z,51.216118
2022-10-04T07:02:44.135Z,51.216118
2022-10-04T07:03:46.973Z,51.216209
2022-10-04T07:05:09.634Z,51.216080
2022-10-04T07:05:46.066Z,51.216145
2022-10-04T07:06:44.033Z,51.216106
2022-10-04T07:07:44.029Z,51.216164
2022-10-04T07:08:44.017Z,51.216202
2022-10-04T07:09:45.021Z,51.216122
2022-10-04T07:10:44.030Z,51.216217
2022-10-04T07:11:44.450Z,51.216049
2022-10-04T07:12:44.406Z,51.216030
2022-10-04T07:13:43.993Z,51.216057
2022-10-04T07:14:44.375Z,51.216064
2022-10-04T07:16:15.987Z,51.215984
2022-10-04T07:16:43.977Z,51.216019
2022-10-04T07:17:43.974Z,51.216106
2022-10-04T07:18:43.975Z,51.216064
2022-10-04T07:19:43.957Z,51.216053
2022-10-04T07:20:43.961Z,51.216110
2022-10-04T07:21:46.676Z,51.216213
2022-10-04T07:22:44.937Z,51.216103
2022-10-04T07:23:43.934Z,51.216057
2022-10-04T07:24:43.933Z,51.216106
2022-10-04T07:25:43.917Z,51.216000
2022-10-04T07:26:43.928Z,51.216003
2022-10-04T07:27:43.913Z,51.216061
2022-10-04T07:28:43.890Z,51.216019
2022-10-04T07:29:43.898Z,51.216007
2022-10-04T07:30:43.957Z,51.216022
2022-10-04T07:31:44.063Z,51.216072
2022-10-04T07:32:43.877Z,51.216141
2022-10-04T07:33:43.877Z,51.216064
2022-10-04T07:34:43.852Z,51.216076
2022-10-04T07:35:43.867Z,51.216118
2022-10-04T07:36:43.853Z,51.216152
2022-10-04T07:37:43.855Z,51.216164
2022-10-04T07:38:43.829Z,51.216152
2022-10-04T07:39:43.825Z,51.216011
2022-10-04T07:40:43.824Z,51.215965
2022-10-04T07:41:44.044Z,51.216011
2022-10-04T07:42:43.833Z,51.216076
2022-10-04T07:43:43.805Z,51.216106
2022-10-04T07:44:43.796Z,51.216030
2022-10-04T07:45:43.855Z,51.216125
2022-10-04T07:46:43.780Z,51.216080
2022-10-04T07:47:43.794Z,51.216000
2022-10-04T07:48:43.782Z,51.216011
2022-10-04T07:49:43.765Z,51.216061
2022-10-04T07:50:43.753Z,51.216022
2022-10-04T07:51:44.218Z,51.215904
2022-10-04T07:52:43.761Z,51.215988
2022-10-04T07:53:43.724Z,51.216167
2022-10-04T07:54:43.740Z,51.216122
2022-10-04T07:55:43.731Z,51.216187
2022-10-04T07:56:43.710Z,51.216118
2022-10-04T07:57:43.730Z,51.216125
2022-10-04T07:58:45.881Z,51.216084
2022-10-04T07:59:44.690Z,51.216179
2022-10-04T08:00:43.726Z,51.216187
2022-10-04T08:01:44.014Z,51.216145
2022-10-04T08:02:43.738Z,51.216221
2022-10-04T08:03:43.673Z,51.216301
2022-10-04T08:04:43.657Z,51.216343
2022-10-04T08:05:43.641Z,51.216125
2022-10-04T08:06:43.965Z,51.216141
2022-10-04T08:07:43.658Z,51.216000
2022-10-04T08:08:43.641Z,51.215927
2022-10-04T08:09:43.658Z,51.216030
2022-10-04T08:10:43.616Z,51.216061
2022-10-04T08:11:43.850Z,51.216137
2022-10-04T08:12:43.606Z,51.216236
2022-10-04T08:13:43.615Z,51.216217
2022-10-04T08:14:43.570Z,51.216240
2022-10-04T08:15:43.612Z,51.216259
2022-10-04T08:16:43.815Z,51.216251
2022-10-04T08:17:43.562Z,51.216187
2022-10-04T08:18:43.546Z,51.216057
2022-10-04T08:19:43.561Z,51.216072
2022-10-04T08:20:43.535Z,51.216148
2022-10-04T08:21:43.534Z,51.216007
2022-10-04T08:22:43.521Z,51.216068
2022-10-04T08:23:43.509Z,51.216030
2022-10-04T08:24:43.526Z,51.216076
2022-10-04T08:25:43.506Z,51.216129
2022-10-04T08:26:43.989Z,51.216095
2022-10-04T08:27:43.523Z,51.216129
2022-10-04T08:28:43.494Z,51.216087
2022-10-04T08:29:43.494Z,51.216152
2022-10-04T08:30:43.516Z,51.216206
2022-10-04T08:31:43.462Z,51.216228
2022-10-04T08:32:43.462Z,51.216148
2022-10-04T08:33:43.446Z,51.216030
2022-10-04T08:34:43.478Z,51.216061
2022-10-04T08:35:43.454Z,51.216141
2022-10-04T08:36:43.683Z,51.216225
2022-10-04T08:37:43.414Z,51.216194
2022-10-04T08:38:43.414Z,51.216255
2022-10-04T08:39:43.430Z,51.216263
2022-10-04T08:40:43.399Z,51.216274
2022-10-04T08:41:43.386Z,51.216385
2022-10-04T08:42:43.386Z,51.216248
2022-10-04T08:43:43.383Z,51.216175
2022-10-04T08:44:43.402Z,51.216175
2022-10-04T08:45:43.362Z,51.216194
2022-10-04T08:46:43.712Z,51.216316
2022-10-04T08:47:43.346Z,51.216228
2022-10-04T08:48:43.343Z,51.216167
2022-10-04T08:49:43.354Z,51.216217
2022-10-04T08:50:43.331Z,51.216244
2022-10-04T08:51:43.326Z,51.216228
2022-10-04T08:52:43.318Z,51.216267
2022-10-04T08:53:43.298Z,51.216022
2022-10-04T08:54:43.297Z,51.216137
2022-10-04T08:55:43.310Z,51.216049
2022-10-04T08:56:43.489Z,51.216084
2022-10-04T08:57:43.337Z,51.216141
2022-10-04T08:58:43.295Z,51.216194
2022-10-04T08:59:43.267Z,51.216187
2022-10-04T09:00:43.271Z,51.216255
2022-10-04T09:01:43.292Z,51.216030
2022-10-04T09:02:43.312Z,51.216099
2022-10-04T09:03:43.236Z,51.216133
2022-10-04T09:04:43.234Z,51.215916
2022-10-04T09:05:43.242Z,51.215965
2022-10-04T09:06:43.395Z,51.215996
2022-10-04T09:07:43.213Z,51.216042
2022-10-04T09:08:43.214Z,51.216064
2022-10-04T09:09:43.190Z,51.216167
2022-10-04T09:10:43.274Z,51.216038
2022-10-04T09:11:43.211Z,51.216042
2022-10-04T09:12:43.214Z,51.216152
2022-10-04T09:13:43.241Z,51.215916
2022-10-04T09:14:43.165Z,51.216026
2022-10-04T09:15:43.270Z,51.215874
2022-10-04T09:16:43.410Z,51.216007
2022-10-04T09:17:43.143Z,51.216053
2022-10-04T09:18:43.138Z,51.215858
2022-10-04T09:19:43.121Z,51.215939
2022-10-04T09:20:43.134Z,51.215736
2022-10-04T09:21:43.129Z,51.216072
2022-10-04T09:22:43.105Z,51.216019
2022-10-04T09:23:43.102Z,51.216068
2022-10-04T09:24:43.126Z,51.215698
2022-10-04T09:25:43.090Z,51.215927
2022-10-04T09:26:43.326Z,51.215805
2022-10-04T09:27:56.991Z,51.215908
2022-10-04T09:28:45.073Z,51.216160
2022-10-04T09:29:43.061Z,51.215961
2022-10-04T09:30:43.103Z,51.215832
2022-10-04T09:31:43.067Z,51.215942
2022-10-04T09:32:43.045Z,51.216019
2022-10-04T09:33:43.055Z,51.216064
2022-10-04T09:34:43.025Z,51.216141
2022-10-04T09:35:43.021Z,51.216190
2022-10-04T09:36:43.220Z,51.216080
2022-10-04T09:37:43.014Z,51.216084
2022-10-04T09:38:43.018Z,51.216103
2022-10-04T09:39:43.002Z,51.216358
2022-10-04T09:40:47.101Z,51.216690
2022-10-04T09:41:43.997Z,51.216671
2022-10-04T09:42:42.990Z,51.216251
2022-10-04T09:43:42.986Z,51.216000
2022-10-04T09:44:42.962Z,51.216057
2022-10-04T09:45:42.991Z,51.216087
2022-10-04T09:46:43.278Z,51.216160
2022-10-04T09:47:42.946Z,51.216312
2022-10-04T09:48:42.987Z,51.216328
2022-10-04T09:49:42.937Z,51.216228
2022-10-04T09:50:42.932Z,51.216324
2022-10-04T09:51:42.925Z,51.216114
2022-10-04T09:52:42.918Z,51.216270
2022-10-04T09:53:42.937Z,51.216133
2022-10-04T09:54:44.514Z,51.216042
2022-10-04T09:55:43.898Z,51.216015
2022-10-04T09:56:43.230Z,51.216263
2022-10-04T09:57:42.894Z,51.216141
2022-10-04T09:58:42.885Z,51.216003
2022-10-04T09:59:42.890Z,51.215908
2022-10-04T10:00:42.869Z,51.216122
2022-10-04T10:01:42.894Z,51.216087
2022-10-04T10:02:42.925Z,51.215942
2022-10-04T10:03:42.849Z,51.216171
2022-10-04T10:04:42.854Z,51.216278
2022-10-04T10:05:42.841Z,51.216377
2022-10-04T10:06:43.114Z,51.216377
2022-10-04T10:07:42.830Z,51.216438
2022-10-04T10:08:42.850Z,51.216305
2022-10-04T10:09:42.837Z,51.216366
2022-10-04T10:10:42.805Z,51.215878
2022-10-04T10:11:43.036Z,51.215668
2022-10-04T10:12:42.794Z,51.215767
2022-10-04T10:13:42.814Z,51.215828
2022-10-04T10:14:42.849Z,51.216003
2022-10-04T10:15:42.795Z,51.216515
2022-10-04T10:16:43.131Z,51.216167
2022-10-04T10:17:42.781Z,51.215984
2022-10-04T10:18:42.797Z,51.215778
2022-10-04T10:19:42.768Z,51.216114
2022-10-04T10:20:42.754Z,51.216221
2022-10-04T10:21:43.044Z,51.216003
2022-10-04T10:22:42.752Z,51.216248
2022-10-04T10:23:42.729Z,51.216187
2022-10-04T10:24:43.729Z,51.216167
2022-10-04T10:25:42.740Z,51.216118
2022-10-04T10:26:42.997Z,51.216160
2022-10-04T10:27:42.725Z,51.216152
2022-10-04T10:28:42.725Z,51.216148
2022-10-04T10:29:42.706Z,51.216316
2022-10-04T10:30:42.705Z,51.216305
2022-10-04T10:31:45.819Z,51.216129
2022-10-04T10:32:44.689Z,51.216103
2022-10-04T10:33:42.692Z,51.216194
2022-10-04T10:34:42.677Z,51.216034
2022-10-04T10:35:42.664Z,51.215893
2022-10-04T10:36:43.025Z,51.215721
2022-10-04T10:37:42.653Z,51.216061
2022-10-04T10:38:42.664Z,51.216003
2022-10-04T10:39:43.089Z,51.215931
2022-10-04T10:40:42.637Z,51.215786
2022-10-04T10:41:42.626Z,51.215694
2022-10-04T10:42:42.618Z,51.215881
2022-10-04T10:43:42.634Z,51.215748
2022-10-04T10:44:42.611Z,51.216240
2022-10-04T10:45:42.607Z,51.216221
2022-10-04T10:46:43.081Z,51.216068
2022-10-04T10:47:42.593Z,51.216137
2022-10-04T10:48:42.603Z,51.216106
2022-10-04T10:49:42.575Z,51.216228
2022-10-04T10:50:43.689Z,51.216282
2022-10-04T10:51:42.602Z,51.216454
2022-10-04T10:52:42.594Z,51.216248
2022-10-04T10:53:42.557Z,51.216251
2022-10-04T10:54:42.572Z,51.216198
2022-10-04T10:55:42.543Z,51.216209
2022-10-04T10:56:42.760Z,51.215996
2022-10-04T10:57:42.538Z,51.215900
2022-10-04T10:58:42.554Z,51.216122
2022-10-04T10:59:42.532Z,51.216187
2022-10-04T11:00:42.520Z,51.216091
2022-10-04T11:01:42.622Z,51.216198
2022-10-04T11:02:50.029Z,51.216251
2022-10-04T11:03:44.609Z,51.216129
2022-10-04T11:04:42.511Z,51.216259
2022-10-04T11:05:42.514Z,51.216217
2022-10-04T11:06:42.961Z,51.216045
2022-10-04T11:07:42.471Z,51.216133
2022-10-04T11:08:42.485Z,51.216331
2022-10-04T11:09:42.462Z,51.216228
2022-10-04T11:10:42.454Z,51.216202
2022-10-04T11:11:42.457Z,51.216236
2022-10-04T11:12:42.450Z,51.216209
2022-10-04T11:13:42.454Z,51.216377
2022-10-04T11:14:42.441Z,51.216476
2022-10-04T11:15:42.478Z,51.216297
2022-10-04T11:16:42.639Z,51.216278
2022-10-04T11:17:42.419Z,51.216198
2022-10-04T11:18:42.406Z,51.216190
2022-10-04T11:19:42.406Z,51.216160
2022-10-04T11:20:42.403Z,51.216068
2022-10-04T11:21:42.399Z,51.216080
2022-10-04T11:22:42.377Z,51.216194
2022-10-04T11:23:42.378Z,51.216122
2022-10-04T11:24:42.375Z,51.216152